Time;durP1;ratioP1;P1;durP2;ratioP2;P2;SDS_P1;SDS_P2;PMS_P1;PMS_P2;Temp;Humidity;BMP_temperature;BMP_pressure;BME280_temperature;BME280_humidity;BME280_pressure;Samples;Min_cycle;Max_cycle;Signal;HPM_P1;HPM_P2
2024/04/20 00:01:09;;;;;;;2.05;1.02;;;13.80;97.20;;;;;;5415451;26;20004;-40
2024/04/20 00:03:34;;;;;;;2.20;1.10;;;13.70;97.10;;;;;;5415249;26;20004;-39
2024/04/20 00:06:06;;;;;;;2.50;1.17;;;13.70;97.10;;;;;;5414961;26;20006;-39
2024/04/20 00:08:31;;;;;;;2.80;0.95;;;13.80;97.20;;;;;;5418471;26;20006;-39
2024/04/20 00:11:05;;;;;;;2.65;1.15;;;13.80;97.10;;;;;;5418849;26;19995;-39
2024/04/20 00:13:31;;;;;;;4.30;1.20;;;13.80;97.10;;;;;;5418766;26;19995;-40
2024/04/20 00:15:57;;;;;;;3.35;1.00;;;13.80;97.10;;;;;;5418870;26;19996;-39
2024/04/20 00:18:22;;;;;;;1.67;0.93;;;13.80;97.10;;;;;;5418145;26;20010;-39
2024/04/20 00:20:48;;;;;;;2.78;1.15;;;13.80;97.10;;;;;;5418722;26;20068;-39
2024/04/20 00:23:14;;;;;;;5.05;1.65;;;13.70;97.10;;;;;;5418342;26;20010;-39
2024/04/20 00:25:39;;;;;;;3.70;1.70;;;13.70;97.10;;;;;;5418691;26;20031;-39
2024/04/20 00:28:06;;;;;;;2.80;1.40;;;13.70;97.20;;;;;;5418545;26;19999;-39
2024/04/20 00:30:32;;;;;;;4.78;1.65;;;13.70;97.20;;;;;;5418503;26;20003;-39
2024/04/20 00:32:57;;;;;;;6.45;1.50;;;13.60;97.20;;;;;;5418478;26;20024;-39
2024/04/20 00:35:23;;;;;;;3.40;1.27;;;13.60;97.20;;;;;;5418315;26;20014;-39
2024/04/20 00:37:49;;;;;;;3.17;1.30;;;13.60;97.30;;;;;;5418204;26;20126;-39
2024/04/20 00:40:15;;;;;;;3.65;1.40;;;13.60;97.30;;;;;;5418144;26;20436;-39
2024/04/20 00:42:43;;;;;;;4.18;1.55;;;13.50;97.40;;;;;;5418057;26;19996;-39
2024/04/20 00:45:08;;;;;;;4.07;1.60;;;13.50;97.40;;;;;;5418619;26;20006;-39
2024/04/20 00:47:37;;;;;;;3.47;1.60;;;13.40;97.50;;;;;;5418332;26;19995;-39
2024/04/20 00:50:04;;;;;;;4.07;1.67;;;13.40;97.60;;;;;;5418940;26;19999;-39
2024/04/20 00:52:31;;;;;;;3.45;1.65;;;13.30;97.70;;;;;;5418868;26;20463;-39
2024/04/20 00:54:58;;;;;;;4.90;1.90;;;13.30;97.80;;;;;;5419464;26;19996;-39
2024/04/20 00:57:24;;;;;;;4.15;1.92;;;13.20;97.80;;;;;;5418123;26;20007;-39
2024/04/20 00:59:50;;;;;;;2.90;1.30;;;13.20;97.90;;;;;;5418220;26;20027;-39
2024/04/20 01:02:16;;;;;;;3.72;1.70;;;13.20;98.00;;;;;;5418302;26;20000;-39
2024/04/20 01:04:42;;;;;;;4.00;1.50;;;13.10;98.30;;;;;;5419104;26;19992;-39
2024/04/20 01:07:07;;;;;;;3.17;1.33;;;13.00;98.00;;;;;;5419402;26;20014;-39
2024/04/20 01:09:33;;;;;;;3.53;1.48;;;13.00;98.10;;;;;;5425092;26;20003;-38
2024/04/20 01:11:59;;;;;;;3.65;1.50;;;13.00;98.10;;;;;;5432347;26;20046;-39
2024/04/20 01:14:24;;;;;;;4.10;1.50;;;13.00;98.20;;;;;;5432652;26;20006;-39
2024/04/20 01:16:50;;;;;;;4.35;1.40;;;12.90;98.30;;;;;;5430031;26;20010;-39
2024/04/20 01:19:22;;;;;;;5.20;1.35;;;12.90;98.30;;;;;;5418176;26;20000;-39
2024/04/20 01:21:48;;;;;;;3.05;1.42;;;12.90;98.50;;;;;;5418157;26;20010;-40
2024/04/20 01:24:15;;;;;;;3.53;1.38;;;12.80;98.40;;;;;;5417427;26;20360;-39
2024/04/20 01:26:41;;;;;;;3.20;1.38;;;12.80;98.50;;;;;;5417580;26;20000;-39
2024/04/20 01:29:08;;;;;;;6.25;1.50;;;12.80;98.60;;;;;;5417430;26;20444;-39
2024/04/20 01:31:33;;;;;;;2.90;1.20;;;12.80;98.50;;;;;;5417304;26;20035;-39
2024/04/20 01:33:59;;;;;;;3.08;1.17;;;12.80;98.60;;;;;;5417642;26;19991;-39
2024/04/20 01:36:25;;;;;;;2.47;1.25;;;12.80;98.70;;;;;;5417232;26;20403;-39
2024/04/20 01:38:54;;;;;;;4.22;1.35;;;12.70;98.60;;;;;;5417046;26;20355;-40
2024/04/20 01:41:20;;;;;;;3.85;1.38;;;12.70;98.70;;;;;;5417395;26;20467;-39
2024/04/20 01:43:47;;;;;;;5.07;1.45;;;12.70;98.70;;;;;;5417432;26;20077;-39
2024/04/20 01:46:12;;;;;;;3.20;1.17;;;12.60;98.70;;;;;;5415301;26;20421;-39
2024/04/20 01:48:38;;;;;;;4.20;1.45;;;12.70;98.70;;;;;;5417328;26;20007;-39
2024/04/20 01:51:04;;;;;;;5.20;1.52;;;12.60;98.80;;;;;;5417120;26;20098;-39
2024/04/20 01:53:30;;;;;;;3.45;1.15;;;12.60;98.80;;;;;;5417172;26;20003;-39
2024/04/20 01:55:55;;;;;;;2.45;1.20;;;12.60;98.80;;;;;;5416982;26;20009;-39
2024/04/20 01:58:21;;;;;;;2.78;1.42;;;12.60;98.80;;;;;;5416916;26;20005;-39
2024/04/20 02:00:47;;;;;;;2.50;1.10;;;12.60;98.90;;;;;;5417065;26;20007;-39
2024/04/20 02:03:12;;;;;;;2.50;1.00;;;12.50;98.90;;;;;;5417424;26;19999;-39
2024/04/20 02:05:38;;;;;;;3.95;1.40;;;12.50;98.90;;;;;;5417491;26;20003;-39
2024/04/20 02:08:04;;;;;;;3.50;1.35;;;12.50;99.00;;;;;;5416351;26;20533;-39
2024/04/20 02:10:30;;;;;;;3.33;1.20;;;12.50;99.00;;;;;;5417260;26;20094;-39
2024/04/20 02:12:55;;;;;;;2.22;1.20;;;12.50;99.00;;;;;;5417022;26;19995;-39
2024/04/20 02:15:21;;;;;;;3.38;1.20;;;12.40;99.00;;;;;;5417187;26;19991;-39
2024/04/20 02:17:46;;;;;;;2.63;1.15;;;12.40;99.00;;;;;;5416908;26;20071;-40
2024/04/20 02:20:12;;;;;;;3.13;1.17;;;12.40;99.00;;;;;;5416946;26;20003;-39
2024/04/20 02:22:38;;;;;;;4.88;1.23;;;12.40;99.10;;;;;;5416900;26;20010;-39
2024/04/20 02:25:04;;;;;;;2.85;1.20;;;12.40;99.10;;;;;;5416609;26;20021;-39
2024/04/20 02:27:30;;;;;;;3.53;1.15;;;12.40;99.10;;;;;;5416711;26;20007;-39
2024/04/20 02:29:56;;;;;;;2.42;1.08;;;12.40;99.10;;;;;;5416261;26;20099;-39
2024/04/20 02:32:22;;;;;;;3.22;1.25;;;12.30;99.10;;;;;;5417076;26;20010;-39
2024/04/20 02:34:48;;;;;;;3.05;0.98;;;12.30;99.10;;;;;;5416580;26;20011;-39
2024/04/20 02:37:14;;;;;;;3.72;1.13;;;12.30;99.20;;;;;;5416013;26;20007;-39
2024/04/20 02:39:39;;;;;;;2.55;1.00;;;12.30;99.20;;;;;;5416382;26;19995;-39
2024/04/20 02:42:06;;;;;;;3.08;1.00;;;12.30;99.20;;;;;;5416517;26;19995;-39
2024/04/20 02:44:32;;;;;;;4.13;1.30;;;12.30;99.20;;;;;;5471421;21;20015;-40
2024/04/20 02:46:58;;;;;;;4.47;0.90;;;12.30;99.20;;;;;;5451656;26;20367;-41
2024/04/20 02:49:24;;;;;;;3.30;0.98;;;12.30;99.30;;;;;;5451809;26;20006;-39
2024/04/20 02:51:49;;;;;;;5.18;1.42;;;12.30;99.20;;;;;;5451902;26;19994;-39
2024/04/20 02:54:16;;;;;;;4.57;1.33;;;12.30;99.30;;;;;;5452359;26;20006;-43
2024/04/20 02:56:42;;;;;;;4.25;1.30;;;12.20;99.20;;;;;;5451789;26;19990;-39
2024/04/20 02:59:07;;;;;;;3.63;1.10;;;12.20;99.20;;;;;;5452084;26;20005;-40
2024/04/20 03:01:33;;;;;;;3.17;1.23;;;12.20;99.30;;;;;;5452906;26;19994;-42
2024/04/20 03:03:59;;;;;;;6.45;1.42;;;12.20;99.30;;;;;;5451811;26;20324;-39
2024/04/20 03:06:24;;;;;;;4.28;1.17;;;12.20;99.30;;;;;;5452222;26;19991;-40
2024/04/20 03:08:50;;;;;;;4.05;1.23;;;12.20;99.30;;;;;;5451719;26;20001;-41
2024/04/20 03:11:16;;;;;;;2.85;1.10;;;12.20;99.30;;;;;;5451566;26;19991;-42
2024/04/20 03:13:42;;;;;;;2.75;1.08;;;12.20;99.30;;;;;;5451573;26;20001;-44
2024/04/20 03:16:07;;;;;;;2.47;1.25;;;12.20;99.30;;;;;;5451331;26;19991;-40
2024/04/20 03:18:35;;;;;;;3.60;1.00;;;12.20;99.30;;;;;;5451355;26;19998;-41
2024/04/20 03:21:01;;;;;;;2.63;1.20;;;12.20;99.40;;;;;;5451619;26;19998;-40
2024/04/20 03:23:31;;;;;;;3.15;1.15;;;12.20;99.40;;;;;;5451763;26;20027;-40
2024/04/20 03:25:57;;;;;;;6.95;1.52;;;12.10;99.30;;;;;;5451822;26;19995;-41
2024/04/20 03:28:23;;;;;;;5.30;1.15;;;12.10;99.40;;;;;;5451431;26;19999;-41
2024/04/20 03:30:49;;;;;;;4.28;1.30;;;12.10;99.40;;;;;;5452232;26;20003;-41
2024/04/20 03:33:20;;;;;;;3.78;1.30;;;12.10;99.40;;;;;;5452222;26;20003;-40
2024/04/20 03:35:45;;;;;;;2.05;0.90;;;12.10;99.40;;;;;;5451046;26;20048;-41
2024/04/20 03:38:11;;;;;;;2.95;1.20;;;12.10;99.40;;;;;;5451099;26;19999;-41
2024/04/20 03:40:37;;;;;;;4.78;1.20;;;12.10;99.40;;;;;;5451821;26;19998;-41
2024/04/20 03:43:03;;;;;;;4.60;1.30;;;12.10;99.40;;;;;;5453475;26;20067;-42
2024/04/20 03:45:28;;;;;;;4.60;1.20;;;12.10;99.50;;;;;;5454797;26;20385;-40
2024/04/20 03:47:54;;;;;;;2.40;0.95;;;12.10;99.40;;;;;;5454322;26;19999;-40
2024/04/20 03:50:20;;;;;;;4.80;1.10;;;12.00;99.40;;;;;;5454411;26;20074;-42
2024/04/20 03:52:47;;;;;;;2.55;1.10;;;12.10;99.40;;;;;;5455064;26;19995;-40
2024/04/20 03:55:14;;;;;;;3.63;0.93;;;12.00;99.40;;;;;;5454535;26;20478;-39
2024/04/20 03:57:39;;;;;;;2.97;1.00;;;12.10;99.40;;;;;;5453952;26;19994;-41
2024/04/20 04:00:07;;;;;;;2.83;0.90;;;12.00;99.40;;;;;;5455108;26;20009;-41
2024/04/20 04:02:32;;;;;;;2.13;0.95;;;12.00;99.40;;;;;;5454756;26;20023;-40
2024/04/20 04:04:58;;;;;;;1.40;0.90;;;12.10;99.40;;;;;;5454354;26;20459;-41
2024/04/20 04:07:24;;;;;;;1.30;0.73;;;12.00;99.40;;;;;;5454505;26;19995;-41
2024/04/20 04:09:49;;;;;;;2.67;0.95;;;12.00;99.50;;;;;;5454294;26;19994;-40
2024/04/20 04:12:15;;;;;;;2.80;0.80;;;12.00;99.50;;;;;;5454522;26;20005;-39
2024/04/20 04:14:40;;;;;;;3.50;1.08;;;12.00;99.40;;;;;;5453966;26;20007;-40
2024/04/20 04:17:06;;;;;;;3.65;1.20;;;12.00;99.40;;;;;;5455016;26;20044;-40
2024/04/20 04:19:32;;;;;;;3.03;0.95;;;12.00;99.50;;;;;;5455372;26;19995;-42
2024/04/20 04:21:59;;;;;;;2.35;1.15;;;12.00;99.40;;;;;;5454147;26;20006;-41
2024/04/20 04:24:25;;;;;;;1.95;0.80;;;12.00;99.50;;;;;;5454226;26;20013;-39
2024/04/20 04:26:51;;;;;;;2.15;1.02;;;11.90;99.50;;;;;;5454011;26;20071;-41
2024/04/20 04:29:17;;;;;;;2.58;0.80;;;11.90;99.50;;;;;;5454068;26;20006;-40
2024/04/20 04:31:43;;;;;;;1.85;0.75;;;11.90;99.50;;;;;;5454157;26;20017;-42
2024/04/20 04:34:09;;;;;;;3.13;1.30;;;12.00;99.60;;;;;;5453823;26;20006;-39
2024/04/20 04:36:35;;;;;;;3.08;1.05;;;12.00;99.50;;;;;;5453820;26;19995;-40
2024/04/20 04:39:02;;;;;;;2.75;1.15;;;11.90;99.40;;;;;;5453869;26;20007;-46
2024/04/20 04:41:28;;;;;;;2.85;0.75;;;12.00;99.50;;;;;;5454180;26;20041;-41
2024/04/20 04:43:54;;;;;;;2.92;0.85;;;11.90;99.50;;;;;;5454199;26;20002;-41
2024/04/20 04:46:19;;;;;;;2.42;0.90;;;12.00;99.50;;;;;;5454123;26;20492;-43
2024/04/20 04:48:45;;;;;;;3.58;1.10;;;12.00;99.40;;;;;;5453559;26;20442;-41
2024/04/20 04:51:11;;;;;;;1.60;0.80;;;12.00;99.40;;;;;;5453725;26;20067;-41
2024/04/20 04:53:36;;;;;;;2.20;0.80;;;12.00;99.40;;;;;;5454095;26;20045;-44
2024/04/20 04:56:02;;;;;;;2.20;1.20;;;12.00;99.40;;;;;;5453879;26;19994;-39
2024/04/20 04:58:27;;;;;;;1.70;0.73;;;12.00;99.40;;;;;;5454036;26;20009;-41
2024/04/20 05:00:53;;;;;;;1.95;0.80;;;12.00;99.30;;;;;;5454435;26;19999;-41
2024/04/20 05:03:19;;;;;;;3.03;0.90;;;12.10;99.30;;;;;;5453911;26;20002;-41
2024/04/20 05:05:48;;;;;;;1.98;0.55;;;12.10;99.20;;;;;;5454008;26;20006;-39
2024/04/20 05:08:14;;;;;;;3.42;0.85;;;12.20;99.20;;;;;;5453845;26;19995;-43
2024/04/20 05:10:39;;;;;;;2.10;0.85;;;12.20;99.10;;;;;;5453813;26;19991;-40
2024/04/20 05:13:05;;;;;;;3.40;0.70;;;12.20;99.00;;;;;;5451589;26;19999;-41
2024/04/20 05:15:31;;;;;;;2.80;0.98;;;12.30;98.90;;;;;;5453373;26;20068;-44
2024/04/20 05:17:57;;;;;;;2.47;0.80;;;12.40;98.90;;;;;;5452917;26;19995;-45
2024/04/20 05:20:23;;;;;;;1.67;0.90;;;12.40;98.80;;;;;;5453485;26;20007;-39
2024/04/20 05:22:49;;;;;;;2.67;0.82;;;12.40;98.70;;;;;;5453901;26;20009;-39
2024/04/20 05:25:15;;;;;;;3.40;0.80;;;12.50;98.60;;;;;;5453495;26;20321;-39
2024/04/20 05:27:40;;;;;;;4.35;1.17;;;12.50;98.60;;;;;;5453532;26;20044;-40
2024/04/20 05:30:07;;;;;;;3.50;1.10;;;12.50;98.50;;;;;;5453546;26;20356;-40
2024/04/20 05:32:32;;;;;;;1.77;0.85;;;12.60;98.50;;;;;;5452742;26;20014;-41
2024/04/20 05:34:58;;;;;;;1.98;0.80;;;12.60;98.50;;;;;;5453089;26;20068;-41
2024/04/20 05:37:23;;;;;;;2.65;0.73;;;12.60;98.40;;;;;;5453824;26;19995;-41
2024/04/20 05:39:49;;;;;;;2.92;0.93;;;12.60;98.40;;;;;;5453565;26;20439;-40
2024/04/20 05:42:15;;;;;;;1.50;0.63;;;12.60;98.30;;;;;;5453333;26;20324;-41
2024/04/20 05:44:40;;;;;;;2.95;0.63;;;12.60;98.30;;;;;;5453106;26;19999;-41
2024/04/20 05:47:06;;;;;;;1.38;0.70;;;12.60;98.20;;;;;;5453335;26;19999;-41
2024/04/20 05:49:34;;;;;;;1.42;0.65;;;12.70;98.30;;;;;;5453508;26;20006;-40
2024/04/20 05:52:00;;;;;;;1.40;0.82;;;12.70;98.20;;;;;;5452697;26;20360;-41
2024/04/20 05:54:25;;;;;;;2.65;0.60;;;12.70;98.20;;;;;;5452664;26;20003;-41
2024/04/20 05:56:51;;;;;;;2.22;0.75;;;12.70;98.10;;;;;;5453137;26;20049;-41
2024/04/20 05:59:17;;;;;;;1.15;0.70;;;12.70;98.10;;;;;;5453030;26;20347;-39
2024/04/20 06:01:42;;;;;;;1.58;0.50;;;12.80;98.10;;;;;;5453258;26;19995;-41
2024/04/20 06:04:08;;;;;;;2.25;0.77;;;12.70;98.10;;;;;;5451773;26;20022;-41
2024/04/20 06:06:34;;;;;;;2.53;0.70;;;12.80;98.10;;;;;;5452437;26;19999;-41
2024/04/20 06:08:59;;;;;;;2.40;0.90;;;12.70;98.00;;;;;;5452517;26;19999;-40
2024/04/20 06:11:25;;;;;;;2.78;0.80;;;12.70;98.00;;;;;;5452591;26;19998;-41
2024/04/20 06:13:50;;;;;;;4.50;0.88;;;12.70;98.00;;;;;;5452382;26;19999;-40
2024/04/20 06:16:16;;;;;;;1.13;0.60;;;12.80;98.00;;;;;;5453060;26;19994;-39
2024/04/20 06:18:42;;;;;;;1.98;0.60;;;12.80;97.90;;;;;;5453195;26;19998;-41
2024/04/20 06:21:07;;;;;;;2.17;0.60;;;12.80;97.90;;;;;;5452156;26;20048;-40
2024/04/20 06:23:34;;;;;;;1.40;0.63;;;12.80;97.90;;;;;;5453099;26;19995;-40
2024/04/20 06:26:00;;;;;;;1.38;0.60;;;12.80;97.90;;;;;;5454043;26;20007;-41
2024/04/20 06:28:26;;;;;;;1.92;0.80;;;12.80;97.80;;;;;;5453049;26;19994;-41
2024/04/20 06:30:53;;;;;;;2.25;0.75;;;12.80;97.70;;;;;;5452676;26;20068;-39
2024/04/20 06:33:18;;;;;;;1.10;0.70;;;12.90;97.80;;;;;;5452221;26;19998;-40
2024/04/20 06:35:44;;;;;;;2.58;0.90;;;12.90;97.70;;;;;;5452154;26;19999;-41
2024/04/20 06:38:10;;;;;;;1.70;0.85;;;12.90;97.80;;;;;;5451962;26;20016;-41
2024/04/20 06:40:36;;;;;;;1.40;0.70;;;12.90;97.70;;;;;;5452231;26;19991;-41
2024/04/20 06:43:02;;;;;;;1.10;0.60;;;12.90;97.80;;;;;;5451063;26;20455;-41
2024/04/20 06:45:28;;;;;;;1.15;0.65;;;12.90;97.80;;;;;;5451820;26;20003;-40
2024/04/20 06:47:53;;;;;;;1.13;0.68;;;12.90;97.90;;;;;;5453037;26;19995;-41
2024/04/20 06:50:19;;;;;;;1.58;0.65;;;12.90;98.00;;;;;;5452398;26;20402;-39
2024/04/20 06:52:45;;;;;;;2.25;0.68;;;12.90;98.00;;;;;;5453483;26;20007;-39
2024/04/20 06:55:11;;;;;;;1.30;0.65;;;12.90;98.00;;;;;;5452696;26;20064;-40
2024/04/20 06:57:36;;;;;;;1.75;0.70;;;12.90;98.00;;;;;;5452379;26;20011;-40
2024/04/20 07:00:05;;;;;;;1.58;0.68;;;12.90;97.90;;;;;;5452592;26;19999;-41
2024/04/20 07:02:30;;;;;;;2.13;0.68;;;13.00;97.90;;;;;;5451512;26;20072;-41
2024/04/20 07:04:56;;;;;;;1.67;0.80;;;13.00;97.80;;;;;;5451997;26;19998;-40
2024/04/20 07:07:22;;;;;;;1.30;0.65;;;13.00;97.80;;;;;;5452052;26;20006;-41
2024/04/20 07:09:51;;;;;;;2.05;0.60;;;13.10;97.70;;;;;;5451560;26;20003;-41
2024/04/20 07:12:17;;;;;;;1.17;0.70;;;13.20;97.70;;;;;;5451429;26;20344;-41
2024/04/20 07:14:43;;;;;;;0.98;0.50;;;13.20;97.60;;;;;;5451271;26;19999;-40
2024/04/20 07:17:09;;;;;;;1.77;0.60;;;13.20;97.60;;;;;;5451565;26;19998;-40
2024/04/20 07:19:34;;;;;;;1.75;0.70;;;13.20;97.50;;;;;;5451749;26;19995;-41
2024/04/20 07:22:00;;;;;;;3.35;0.90;;;13.30;97.50;;;;;;5451669;26;20051;-40
2024/04/20 07:24:25;;;;;;;2.25;0.60;;;13.30;97.50;;;;;;5451580;26;20009;-41
2024/04/20 07:26:51;;;;;;;1.40;0.70;;;13.30;97.40;;;;;;5451946;26;20460;-43
2024/04/20 07:29:17;;;;;;;1.58;0.65;;;13.30;97.30;;;;;;5451800;26;19999;-41
2024/04/20 07:31:45;;;;;;;1.65;0.82;;;13.40;97.30;;;;;;5451577;26;20455;-40
2024/04/20 07:34:11;;;;;;;2.17;0.60;;;13.30;97.30;;;;;;5451826;26;20068;-40
2024/04/20 07:36:37;;;;;;;3.35;1.20;;;13.40;97.30;;;;;;5451990;26;20018;-41
2024/04/20 07:39:02;;;;;;;3.47;1.02;;;13.20;92.90;;;;;;5451380;26;20017;-42
2024/04/20 07:41:28;;;;;;;4.70;1.30;;;13.10;93.70;;;;;;5451675;26;19998;-40
2024/04/20 07:43:57;;;;;;;5.10;1.13;;;13.00;94.30;;;;;;5411906;26;1046423;-43
2024/04/20 07:46:22;;;;;;;6.15;1.40;;;13.00;94.70;;;;;;5450797;26;19994;-42
2024/04/20 07:48:48;;;;;;;3.20;1.13;;;13.00;95.10;;;;;;5452207;26;20010;-43
2024/04/20 07:51:14;;;;;;;5.20;1.52;;;13.00;95.30;;;;;;5451842;26;19999;-42
2024/04/20 07:53:40;;;;;;;5.80;1.58;;;13.10;95.50;;;;;;5451123;26;19999;-42
2024/04/20 07:56:06;;;;;;;7.10;1.55;;;13.10;95.70;;;;;;5450788;26;20002;-40
2024/04/20 07:58:31;;;;;;;3.85;1.10;;;13.20;95.70;;;;;;5450770;26;20397;-43
2024/04/20 08:00:58;;;;;;;3.08;0.95;;;13.20;95.80;;;;;;5451234;26;19994;-41
2024/04/20 08:03:23;;;;;;;6.32;1.52;;;13.20;95.80;;;;;;5451504;26;20010;-41
2024/04/20 08:05:49;;;;;;;3.75;0.90;;;13.20;95.90;;;;;;5451204;26;19999;-42
2024/04/20 08:08:15;;;;;;;3.00;1.30;;;13.20;95.90;;;;;;5451321;26;20455;-42
2024/04/20 08:10:40;;;;;;;3.22;1.30;;;13.20;95.90;;;;;;5450956;26;20005;-43
2024/04/20 08:13:06;;;;;;;3.30;1.10;;;13.20;96.30;;;;;;5451259;26;20336;-41
2024/04/20 08:15:32;;;;;;;3.00;0.90;;;13.20;96.00;;;;;;5450999;26;19995;-41
2024/04/20 08:17:57;;;;;;;4.32;1.17;;;13.30;96.00;;;;;;5450316;26;20444;-46
2024/04/20 08:20:23;;;;;;;2.63;1.00;;;13.30;96.00;;;;;;5452113;26;20010;-41
2024/04/20 08:22:48;;;;;;;4.57;1.20;;;13.30;96.00;;;;;;5451019;26;19995;-41
2024/04/20 08:25:14;;;;;;;2.80;1.00;;;13.30;96.00;;;;;;5450327;26;19995;-41
2024/04/20 08:27:40;;;;;;;3.33;1.00;;;13.30;96.00;;;;;;5451164;26;20014;-41
2024/04/20 08:30:06;;;;;;;5.15;1.13;;;13.30;95.90;;;;;;5453914;26;20071;-41
2024/04/20 08:32:31;;;;;;;4.32;1.10;;;13.40;96.00;;;;;;5454066;26;20146;-42
2024/04/20 08:34:57;;;;;;;2.67;0.90;;;13.40;96.00;;;;;;5453870;26;20032;-43
2024/04/20 08:37:23;;;;;;;2.33;1.00;;;13.40;96.00;;;;;;5455051;26;19995;-42
2024/04/20 08:39:48;;;;;;;3.17;0.80;;;13.40;96.00;;;;;;5453744;26;19994;-42
2024/04/20 08:42:20;;;;;;;1.70;0.88;;;13.40;96.00;;;;;;5454311;26;20040;-43
2024/04/20 08:44:49;;;;;;;2.50;0.80;;;13.40;96.00;;;;;;5454437;26;20006;-41
2024/04/20 08:47:15;;;;;;;4.32;1.10;;;13.40;96.10;;;;;;5453599;26;20011;-44
2024/04/20 08:49:43;;;;;;;3.15;1.05;;;13.30;96.10;;;;;;5454296;26;20006;-43
2024/04/20 08:52:10;;;;;;;2.50;0.90;;;13.30;96.10;;;;;;5454288;26;20038;-42
2024/04/20 08:54:37;;;;;;;2.90;0.90;;;13.30;96.10;;;;;;5453967;26;20040;-40
2024/04/20 08:57:04;;;;;;;5.80;1.00;;;13.30;96.10;;;;;;5454316;26;20018;-42
2024/04/20 08:59:30;;;;;;;3.28;0.98;;;13.30;96.00;;;;;;5453206;26;20036;-41
2024/04/20 09:01:56;;;;;;;2.17;0.90;;;13.30;96.00;;;;;;5453373;26;19994;-41
2024/04/20 09:04:23;;;;;;;3.58;0.80;;;13.30;96.00;;;;;;5453882;26;20067;-43
2024/04/20 09:06:49;;;;;;;3.58;1.02;;;13.30;96.00;;;;;;5454125;26;20448;-41
2024/04/20 09:09:16;;;;;;;2.55;1.40;;;13.40;96.00;;;;;;5453961;26;19999;-41
2024/04/20 09:11:42;;;;;;;2.88;0.93;;;13.40;96.00;;;;;;5453293;26;19998;-43
2024/04/20 09:14:08;;;;;;;2.78;0.90;;;13.40;96.00;;;;;;5453572;26;20351;-40
2024/04/20 09:16:34;;;;;;;1.65;0.80;;;13.30;96.00;;;;;;5453197;26;19994;-42
2024/04/20 09:19:03;;;;;;;2.63;0.82;;;13.40;96.00;;;;;;5453450;26;20003;-41
2024/04/20 09:21:29;;;;;;;2.55;1.00;;;13.30;96.00;;;;;;5452313;26;20039;-40
2024/04/20 09:24:08;;;;;;;2.17;0.90;;;13.40;96.00;;;;;;5454277;26;20348;-40
2024/04/20 09:26:34;;;;;;;2.58;0.90;;;13.40;96.00;;;;;;5453185;26;20389;-44
2024/04/20 09:29:00;;;;;;;3.15;1.02;;;13.40;96.00;;;;;;5452876;26;19995;-44
2024/04/20 09:31:26;;;;;;;2.40;1.05;;;13.30;96.00;;;;;;5453069;26;20351;-43
2024/04/20 09:33:56;;;;;;;3.88;0.98;;;13.30;96.00;;;;;;5454140;26;20010;-42
2024/04/20 09:36:22;;;;;;;1.73;0.70;;;13.30;96.00;;;;;;5453707;26;19995;-41
2024/04/20 09:38:47;;;;;;;2.42;1.00;;;13.30;96.00;;;;;;5451826;26;20485;-41
2024/04/20 09:41:15;;;;;;;1.85;0.85;;;13.30;96.00;;;;;;5453296;26;20006;-41
2024/04/20 09:43:43;;;;;;;1.77;0.85;;;13.40;96.00;;;;;;5453200;26;20410;-44
2024/04/20 09:46:10;;;;;;;2.80;0.85;;;13.40;96.00;;;;;;5453343;26;20007;-41
2024/04/20 09:48:38;;;;;;;1.67;0.70;;;13.40;96.00;;;;;;5453661;26;20030;-41
2024/04/20 09:51:22;;;;;;;3.58;1.20;;;13.40;95.90;;;;;;5452956;26;20020;-41
2024/04/20 09:53:53;;;;;;;2.88;0.90;;;13.40;95.90;;;;;;5453346;26;20344;-41
2024/04/20 09:56:20;;;;;;;2.35;0.80;;;13.50;95.90;;;;;;5453595;26;19998;-44
2024/04/20 09:58:47;;;;;;;1.60;0.88;;;13.50;95.90;;;;;;5453616;26;20032;-41
2024/04/20 10:01:13;;;;;;;2.72;1.10;;;13.50;95.90;;;;;;5452611;26;20448;-42
2024/04/20 10:03:40;;;;;;;1.52;0.90;;;13.50;95.80;;;;;;5452570;26;20005;-43
2024/04/20 10:06:10;;;;;;;2.85;0.90;;;13.50;96.20;;;;;;5453765;26;19999;-42
2024/04/20 10:08:37;;;;;;;2.08;0.85;;;13.50;95.80;;;;;;5452898;26;20429;-42
2024/04/20 10:11:05;;;;;;;2.88;0.90;;;13.50;95.80;;;;;;5452479;26;20335;-44
2024/04/20 10:13:33;;;;;;;2.13;0.90;;;13.50;95.80;;;;;;5452374;26;20351;-42
2024/04/20 10:16:00;;;;;;;1.83;0.80;;;13.40;95.80;;;;;;5453113;26;20063;-43
2024/04/20 10:18:26;;;;;;;1.95;0.75;;;13.40;95.80;;;;;;5452779;26;20339;-41
2024/04/20 10:20:57;;;;;;;2.17;1.02;;;13.40;95.80;;;;;;5452902;26;20473;-41
2024/04/20 10:23:23;;;;;;;4.97;0.80;;;13.50;96.10;;;;;;5453040;26;19994;-43
2024/04/20 10:25:53;;;;;;;2.70;0.88;;;13.50;95.80;;;;;;5452925;26;19991;-43
2024/04/20 10:28:30;;;;;;;1.98;0.73;;;13.50;95.80;;;;;;5452168;26;20022;-42
2024/04/20 10:30:57;;;;;;;1.42;0.73;;;13.50;95.90;;;;;;5452754;26;19999;-41
2024/04/20 10:33:31;;;;;;;1.60;0.65;;;13.50;95.90;;;;;;5452434;26;20024;-46
2024/04/20 10:35:58;;;;;;;1.98;0.93;;;13.50;95.90;;;;;;5452059;26;20030;-46
2024/04/20 10:38:29;;;;;;;2.60;0.80;;;13.50;96.00;;;;;;5451873;26;20533;-41
2024/04/20 10:40:55;;;;;;;1.67;0.85;;;13.50;96.00;;;;;;5451802;26;20406;-44
2024/04/20 10:43:23;;;;;;;1.88;1.00;;;13.40;95.90;;;;;;5452031;26;19995;-42
2024/04/20 10:46:09;;;;;;;1.15;0.70;;;13.50;96.00;;;;;;5451899;26;20068;-43
2024/04/20 10:48:40;;;;;;;2.65;0.85;;;13.50;95.90;;;;;;5452464;26;20005;-41
2024/04/20 10:51:08;;;;;;;2.83;1.05;;;13.60;95.90;;;;;;5450252;26;19995;-42
2024/04/20 10:53:35;;;;;;;1.30;0.80;;;13.60;95.80;;;;;;5452279;26;20003;-41
2024/04/20 10:56:01;;;;;;;1.58;0.70;;;13.60;95.70;;;;;;5451995;26;19998;-41
2024/04/20 10:58:27;;;;;;;1.20;0.57;;;13.70;95.70;;;;;;5452415;26;19999;-44
2024/04/20 11:00:59;;;;;;;2.67;0.80;;;13.70;95.70;;;;;;5452277;26;20004;-40
2024/04/20 11:03:25;;;;;;;2.40;0.80;;;13.70;95.70;;;;;;5452781;26;20343;-41
2024/04/20 11:05:55;;;;;;;1.65;0.80;;;13.70;95.70;;;;;;5452883;26;19991;-43
2024/04/20 11:08:21;;;;;;;1.92;0.70;;;13.70;95.60;;;;;;5451527;26;20023;-41
2024/04/20 11:11:02;;;;;;;2.72;0.98;;;13.70;95.60;;;;;;5451971;26;19998;-41
2024/04/20 11:13:29;;;;;;;5.18;1.23;;;13.70;93.80;;;;;;5452460;26;20464;-44
2024/04/20 11:15:55;;;;;;;3.90;1.52;;;13.70;91.70;;;;;;5452137;26;20030;-40
2024/04/20 11:18:21;;;;;;;4.25;1.40;;;13.60;92.40;;;;;;5452495;26;20010;-40
2024/04/20 11:20:46;;;;;;;5.07;1.45;;;13.60;93.00;;;;;;5451266;26;19999;-42
2024/04/20 11:23:15;;;;;;;5.85;1.50;;;13.60;93.50;;;;;;5452369;26;20480;-40
2024/04/20 11:25:53;;;;;;;4.72;1.27;;;13.60;93.80;;;;;;5451320;26;20459;-43
2024/04/20 11:28:21;;;;;;;4.22;1.48;;;13.70;94.00;;;;;;5451085;26;19998;-40
2024/04/20 11:30:47;;;;;;;5.05;1.30;;;13.70;94.20;;;;;;5451819;26;20001;-41
2024/04/20 11:33:13;;;;;;;2.80;1.50;;;13.70;94.20;;;;;;5452138;26;20072;-41
2024/04/20 11:35:45;;;;;;;4.70;1.10;;;13.70;94.30;;;;;;5451613;26;19999;-40
2024/04/20 11:38:14;;;;;;;2.88;1.00;;;13.70;94.40;;;;;;5451016;26;20067;-41
2024/04/20 11:40:46;;;;;;;3.42;1.20;;;13.70;94.50;;;;;;5451177;26;20393;-44
2024/04/20 11:43:11;;;;;;;2.45;1.20;;;13.70;94.60;;;;;;5451035;26;20480;-41
2024/04/20 11:45:50;;;;;;;2.25;1.00;;;13.70;94.60;;;;;;5451414;26;19999;-40
2024/04/20 11:48:25;;;;;;;2.38;0.95;;;13.80;94.70;;;;;;5451363;26;19999;-40
2024/04/20 11:51:01;;;;;;;3.75;1.05;;;13.80;94.70;;;;;;5451664;26;20005;-40
2024/04/20 11:56:18;;;;;;;4.57;1.40;;;13.80;94.70;;;;;;5451122;26;20005;-42
2024/04/20 11:58:52;;;;;;;2.83;1.30;;;13.90;94.80;;;;;;5450789;26;19999;-42
2024/04/20 12:01:18;;;;;;;1.50;0.98;;;13.90;94.80;;;;;;5450746;26;20095;-41
2024/04/20 12:03:45;;;;;;;1.40;0.82;;;13.90;94.80;;;;;;5453410;26;19995;-40
2024/04/20 12:06:12;;;;;;;2.90;1.00;;;13.90;94.80;;;;;;5454785;26;20401;-40
2024/04/20 12:08:40;;;;;;;2.50;0.85;;;13.90;94.80;;;;;;5452973;26;20005;-43
2024/04/20 12:11:06;;;;;;;2.95;1.00;;;13.90;94.90;;;;;;5454541;26;20005;-43
2024/04/20 12:13:32;;;;;;;2.63;1.00;;;13.90;94.90;;;;;;5455061;26;19995;-44
2024/04/20 12:15:58;;;;;;;3.47;0.90;;;13.90;94.90;;;;;;5454926;26;20465;-42
2024/04/20 12:18:23;;;;;;;4.05;1.00;;;13.90;95.00;;;;;;5454268;26;19995;-44
2024/04/20 12:20:50;;;;;;;2.58;1.00;;;13.90;95.00;;;;;;5455050;26;20007;-41
2024/04/20 12:23:16;;;;;;;2.47;0.82;;;13.90;95.00;;;;;;5454141;26;20413;-43
2024/04/20 12:25:48;;;;;;;1.20;0.70;;;13.90;95.30;;;;;;5454313;26;20452;-41
2024/04/20 12:28:17;;;;;;;2.42;0.80;;;14.00;95.00;;;;;;5454216;26;19995;-42
2024/04/20 12:30:43;;;;;;;1.50;0.73;;;14.00;94.90;;;;;;5453093;26;20353;-42
2024/04/20 12:33:09;;;;;;;1.55;0.80;;;14.00;94.90;;;;;;5454059;26;20006;-41
2024/04/20 12:35:35;;;;;;;1.63;0.80;;;14.00;95.20;;;;;;5454971;26;19998;-44
2024/04/20 12:38:05;;;;;;;1.75;0.80;;;14.00;94.90;;;;;;5454246;26;20013;-40
2024/04/20 12:40:31;;;;;;;1.15;0.77;;;14.10;94.90;;;;;;5454146;26;19997;-39
2024/04/20 12:42:56;;;;;;;2.53;0.80;;;14.10;94.90;;;;;;5454397;26;20006;-40
2024/04/20 12:45:26;;;;;;;1.65;0.70;;;14.10;95.00;;;;;;5453872;26;20003;-41
2024/04/20 12:47:52;;;;;;;1.90;0.70;;;14.10;95.00;;;;;;5454151;26;20014;-41